Time;durP1;ratioP1;P1;durP2;ratioP2;P2;SDS_P1;SDS_P2;PMS_P1;PMS_P2;Temp;Humidity;BMP_temperature;BMP_pressure;BME280_temperature;BME280_humidity;BME280_pressure;Samples;Min_cycle;Max_cycle;Signal;HPM_P1;HPM_P2
2021/06/05 00:01:01;;;;;;;11.68;5.95;;;;;;;;;;143732;570;46020;-62
2021/06/05 00:03:29;;;;;;;13.80;5.60;;;;;;;;;;143733;611;46012;-62
2021/06/05 00:05:58;;;;;;;11.60;5.78;;;;;;;;;;143737;642;45021;-60
2021/06/05 00:08:28;;;;;;;6.57;5.28;;;;;;;;;;143737;694;46020;-60
2021/06/05 00:11:00;;;;;;;7.40;6.12;;;;;;;;;;143734;581;46020;-62
2021/06/05 00:13:42;;;;;;;6.65;5.22;;;;;;;;;;143732;583;46013;-62
2021/06/05 00:16:16;;;;;;;9.93;6.30;;;;;;;;;;143737;605;45020;-62
2021/06/05 00:18:47;;;;;;;6.65;5.60;;;;;;;;;;143739;584;46020;-61
2021/06/05 00:21:16;;;;;;;6.07;4.75;;;;;;;;;;143735;592;46020;-61
2021/06/05 00:23:43;;;;;;;10.95;5.90;;;;;;;;;;143734;581;46012;-62
2021/06/05 00:26:10;;;;;;;8.82;6.28;;;;;;;;;;143736;565;45020;-61
2021/06/05 00:28:37;;;;;;;10.20;5.70;;;;;;;;;;143734;585;46012;-63
2021/06/05 00:31:05;;;;;;;6.87;5.22;;;;;;;;;;143733;579;46020;-63
2021/06/05 00:33:32;;;;;;;9.95;7.07;;;;;;;;;;143733;644;46013;-62
2021/06/05 00:36:00;;;;;;;15.70;7.30;;;;;;;;;;143733;573;45021;-62
2021/06/05 00:38:27;;;;;;;7.75;5.62;;;;;;;;;;143737;564;46020;-62
2021/06/05 00:40:56;;;;;;;10.32;7.03;;;;;;;;;;143737;609;46021;-62
2021/06/05 00:43:27;;;;;;;10.70;7.43;;;;;;;;;;143734;602;46012;-63
2021/06/05 00:45:54;;;;;;;8.05;6.10;;;;;;;;;;143736;569;45020;-62
2021/06/05 00:48:22;;;;;;;9.38;6.53;;;;;;;;;;143738;581;46010;-62
2021/06/05 00:50:51;;;;;;;6.85;5.55;;;;;;;;;;143735;593;46020;-61
2021/06/05 00:53:21;;;;;;;6.68;5.82;;;;;;;;;;143733;583;46012;-62
2021/06/05 00:55:50;;;;;;;8.02;6.25;;;;;;;;;;143735;594;45020;-62
2021/06/05 00:58:18;;;;;;;9.02;6.30;;;;;;;;;;143738;595;46021;-62
2021/06/05 01:00:54;;;;;;;10.63;5.60;;;;;;;;;;143734;580;46033;-62
2021/06/05 01:03:22;;;;;;;10.25;5.43;;;;;;;;;;143734;586;46013;-61
2021/06/05 01:05:55;;;;;;;8.23;5.75;;;;;;;;;;143735;566;45021;-61
2021/06/05 01:08:33;;;;;;;9.85;6.22;;;;;;;;;;143738;682;46020;-63
2021/06/05 01:11:15;;;;;;;8.82;6.85;;;;;;;;;;143733;578;46020;-61
2021/06/05 01:13:59;;;;;;;11.30;6.25;;;;;;;;;;143734;571;46012;-61
2021/06/05 01:16:28;;;;;;;9.77;6.37;;;;;;;;;;143736;616;45020;-63
2021/06/05 01:19:01;;;;;;;11.52;6.95;;;;;;;;;;143737;596;46015;-61
2021/06/05 01:21:45;;;;;;;7.50;5.55;;;;;;;;;;143735;581;46020;-61
2021/06/05 01:24:47;;;;;;;7.65;5.78;;;;;;;;;;143732;603;46917;-61
2021/06/05 01:27:24;;;;;;;9.88;6.97;;;;;;;;;;143733;579;45021;-61
2021/06/05 01:29:56;;;;;;;10.43;5.82;;;;;;;;;;143738;634;46010;-63
2021/06/05 01:32:26;;;;;;;9.60;6.68;;;;;;;;;;143733;625;46020;-62
2021/06/05 01:34:58;;;;;;;9.00;7.10;;;;;;;;;;143733;586;46012;-62
2021/06/05 01:37:28;;;;;;;14.48;7.28;;;;;;;;;;143732;595;45020;-62
2021/06/05 01:39:55;;;;;;;9.82;7.00;;;;;;;;;;143739;570;45020;-61
2021/06/05 01:42:34;;;;;;;7.60;6.53;;;;;;;;;;143734;600;47021;-61
2021/06/05 01:45:04;;;;;;;8.40;6.82;;;;;;;;;;143734;645;46012;-62
2021/06/05 01:47:31;;;;;;;10.05;7.57;;;;;;;;;;143733;571;45020;-61
2021/06/05 01:49:58;;;;;;;10.13;6.75;;;;;;;;;;143739;572;45026;-63
2021/06/05 01:52:30;;;;;;;8.23;5.87;;;;;;;;;;143733;608;47020;-62
2021/06/05 01:55:12;;;;;;;9.20;6.47;;;;;;;;;;143731;605;46916;-63
2021/06/05 01:57:43;;;;;;;7.72;6.25;;;;;;;;;;143736;581;45021;-63
2021/06/05 02:00:22;;;;;;;9.82;6.15;;;;;;;;;;143739;566;45020;-62
2021/06/05 02:02:49;;;;;;;6.90;5.57;;;;;;;;;;143732;585;46022;-63
2021/06/05 02:05:17;;;;;;;9.00;6.25;;;;;;;;;;143734;636;46012;-63
2021/06/05 02:07:44;;;;;;;7.45;5.78;;;;;;;;;;143737;611;45020;-62
2021/06/05 02:10:17;;;;;;;10.23;6.25;;;;;;;;;;143739;640;45022;-63
2021/06/05 02:12:44;;;;;;;7.97;6.30;;;;;;;;;;143734;580;46021;-62
2021/06/05 02:15:37;;;;;;;11.40;6.25;;;;;;;;;;143734;576;46012;-63
2021/06/05 02:18:09;;;;;;;9.05;6.43;;;;;;;;;;143734;582;46029;-60
2021/06/05 02:21:07;;;;;;;8.40;6.18;;;;;;;;;;143738;566;46010;-62
2021/06/05 02:24:05;;;;;;;8.85;6.07;;;;;;;;;;143734;682;46020;-64
2021/06/05 02:26:35;;;;;;;8.88;7.15;;;;;;;;;;143733;572;46012;-64
2021/06/05 02:29:05;;;;;;;9.52;5.93;;;;;;;;;;143730;569;45020;-64
2021/06/05 02:31:34;;;;;;;7.78;6.43;;;;;;;;;;143738;594;46020;-65
2021/06/05 02:34:03;;;;;;;12.37;6.78;;;;;;;;;;143732;589;46022;-63
2021/06/05 02:36:30;;;;;;;10.10;6.82;;;;;;;;;;143734;754;46012;-63
2021/06/05 02:38:56;;;;;;;8.32;6.25;;;;;;;;;;143733;580;45020;-63
2021/06/05 02:41:24;;;;;;;9.27;7.03;;;;;;;;;;143736;586;46021;-65
2021/06/05 02:43:56;;;;;;;8.65;6.05;;;;;;;;;;143734;569;46020;-62
2021/06/05 02:46:35;;;;;;;8.88;7.05;;;;;;;;;;143733;653;46012;-63
2021/06/05 02:49:39;;;;;;;12.98;6.65;;;;;;;;;;143734;578;45021;-63
2021/06/05 02:52:10;;;;;;;7.78;6.15;;;;;;;;;;143739;585;45020;-63
2021/06/05 02:54:37;;;;;;;8.02;6.50;;;;;;;;;;143735;751;46020;-63
2021/06/05 02:57:07;;;;;;;8.82;6.50;;;;;;;;;;143734;576;46012;-63
2021/06/05 02:59:34;;;;;;;8.88;6.82;;;;;;;;;;143735;658;45020;-63
2021/06/05 03:02:01;;;;;;;11.45;7.28;;;;;;;;;;143738;569;47020;-64
2021/06/05 03:04:29;;;;;;;8.38;6.57;;;;;;;;;;143734;725;46021;-63
2021/06/05 03:06:56;;;;;;;9.38;6.32;;;;;;;;;;143734;596;46012;-63
2021/06/05 03:09:23;;;;;;;13.30;7.47;;;;;;;;;;143734;582;45020;-63
2021/06/05 03:11:51;;;;;;;8.38;6.87;;;;;;;;;;143738;573;46010;-63
2021/06/05 03:14:18;;;;;;;9.82;6.53;;;;;;;;;;143736;570;46020;-63
2021/06/05 03:16:45;;;;;;;8.68;6.70;;;;;;;;;;143734;591;46012;-63
2021/06/05 03:19:12;;;;;;;13.40;6.95;;;;;;;;;;143735;589;45021;-63
2021/06/05 03:21:39;;;;;;;13.05;7.15;;;;;;;;;;143738;668;46010;-64
2021/06/05 03:24:07;;;;;;;12.37;6.90;;;;;;;;;;143733;571;46020;-64
2021/06/05 03:26:34;;;;;;;8.50;6.55;;;;;;;;;;143734;581;46012;-62
2021/06/05 03:29:00;;;;;;;13.45;7.43;;;;;;;;;;143736;585;45020;-64
2021/06/05 03:31:27;;;;;;;13.25;7.53;;;;;;;;;;143736;585;46020;-63
2021/06/05 03:33:55;;;;;;;12.55;6.62;;;;;;;;;;143732;583;46022;-62
2021/06/05 03:36:23;;;;;;;11.75;7.47;;;;;;;;;;143735;626;46012;-63
2021/06/05 03:38:50;;;;;;;13.85;7.05;;;;;;;;;;143737;592;45020;-63
2021/06/05 03:41:18;;;;;;;11.57;8.00;;;;;;;;;;143738;593;46010;-62
2021/06/05 03:43:45;;;;;;;11.23;6.85;;;;;;;;;;143733;584;46020;-61
2021/06/05 03:46:12;;;;;;;23.00;9.30;;;;;;;;;;143734;659;46012;-63
2021/06/05 03:48:40;;;;;;;11.52;7.35;;;;;;;;;;143734;625;46021;-63
2021/06/05 03:51:08;;;;;;;16.30;8.10;;;;;;;;;;143738;633;46020;-63
2021/06/05 03:53:37;;;;;;;10.02;7.12;;;;;;;;;;143735;611;46012;-64
2021/06/05 03:56:04;;;;;;;10.82;7.07;;;;;;;;;;143734;573;46012;-64
2021/06/05 03:58:39;;;;;;;11.98;6.78;;;;;;;;;;143733;579;46020;-64
2021/06/05 04:01:21;;;;;;;10.43;7.18;;;;;;;;;;143737;639;46020;-65
2021/06/05 04:03:49;;;;;;;16.70;7.82;;;;;;;;;;143736;593;46021;-63
2021/06/05 04:06:19;;;;;;;11.32;7.65;;;;;;;;;;143737;574;45915;-64
2021/06/05 04:08:48;;;;;;;13.02;7.97;;;;;;;;;;143738;569;45020;-64
2021/06/05 04:11:17;;;;;;;14.30;7.65;;;;;;;;;;143738;607;46013;-62
2021/06/05 04:13:46;;;;;;;13.52;8.80;;;;;;;;;;143737;618;46020;-63
2021/06/05 04:16:14;;;;;;;13.40;8.70;;;;;;;;;;143737;581;45915;-62
2021/06/05 04:18:43;;;;;;;11.60;7.95;;;;;;;;;;143738;588;45021;-63
2021/06/05 04:21:14;;;;;;;14.25;8.07;;;;;;;;;;143739;585;46012;-62
2021/06/05 04:23:43;;;;;;;22.65;9.10;;;;;;;;;;143736;564;46022;-62
2021/06/05 04:26:12;;;;;;;13.32;8.40;;;;;;;;;;143734;590;46012;-62
2021/06/05 04:28:40;;;;;;;18.83;8.30;;;;;;;;;;143735;571;46020;-62
2021/06/05 04:31:10;;;;;;;15.60;10.70;;;;;;;;;;143739;679;46012;-62
2021/06/05 04:33:38;;;;;;;18.33;10.18;;;;;;;;;;143737;567;46013;-63
2021/06/05 04:36:09;;;;;;;16.52;12.07;;;;;;;;;;143735;570;46012;-63
2021/06/05 04:38:38;;;;;;;19.40;11.70;;;;;;;;;;143736;572;45020;-64
2021/06/05 04:41:07;;;;;;;16.95;11.95;;;;;;;;;;143739;605;45027;-63
2021/06/05 04:43:34;;;;;;;21.58;12.68;;;;;;;;;;143735;610;46020;-63
2021/06/05 04:46:02;;;;;;;17.02;11.15;;;;;;;;;;143734;598;46012;-62
2021/06/05 04:48:30;;;;;;;19.02;12.75;;;;;;;;;;143735;597;45021;-61
2021/06/05 04:50:58;;;;;;;17.45;11.05;;;;;;;;;;143736;602;46020;-62
2021/06/05 04:53:25;;;;;;;15.70;10.10;;;;;;;;;;143733;569;46022;-63
2021/06/05 04:55:54;;;;;;;14.25;10.98;;;;;;;;;;143733;895;46013;-63
2021/06/05 04:58:22;;;;;;;17.02;11.55;;;;;;;;;;143736;566;45020;-62
2021/06/05 05:00:52;;;;;;;19.52;10.63;;;;;;;;;;143736;610;46020;-62
2021/06/05 05:03:22;;;;;;;17.48;10.82;;;;;;;;;;143736;794;46021;-62
2021/06/05 05:05:50;;;;;;;17.42;9.95;;;;;;;;;;143733;593;46012;-62
2021/06/05 05:08:18;;;;;;;14.82;9.98;;;;;;;;;;143735;602;45020;-62
2021/06/05 05:10:49;;;;;;;11.15;7.87;;;;;;;;;;143740;643;45027;-62
2021/06/05 05:13:23;;;;;;;15.60;8.43;;;;;;;;;;143731;601;49020;-63
2021/06/05 05:15:50;;;;;;;13.62;7.68;;;;;;;;;;143734;617;46012;-61
2021/06/05 05:18:18;;;;;;;11.02;9.23;;;;;;;;;;143735;564;45021;-62
2021/06/05 05:20:46;;;;;;;15.43;9.50;;;;;;;;;;143740;612;45020;-61
2021/06/05 05:23:14;;;;;;;15.98;8.15;;;;;;;;;;143734;572;46020;-61
2021/06/05 05:25:43;;;;;;;18.00;9.10;;;;;;;;;;143732;564;46013;-60
2021/06/05 05:28:13;;;;;;;11.25;8.20;;;;;;;;;;143736;597;45020;-61
2021/06/05 05:30:47;;;;;;;12.80;8.68;;;;;;;;;;143740;616;45029;-60
2021/06/05 05:33:14;;;;;;;13.32;8.27;;;;;;;;;;143734;576;46021;-59
2021/06/05 05:35:42;;;;;;;16.20;6.82;;;;;;;;;;143734;569;46012;-60
2021/06/05 05:38:11;;;;;;;10.32;7.60;;;;;;;;;;143736;582;45020;-60
2021/06/05 05:40:39;;;;;;;11.02;6.90;;;;;;;;;;143735;579;46021;-59
2021/06/05 05:43:06;;;;;;;9.82;7.57;;;;;;;;;;143734;572;46020;-60
2021/06/05 05:45:34;;;;;;;9.13;5.60;;;;;;;;;;143732;582;46012;-60
2021/06/05 05:48:04;;;;;;;14.20;7.60;;;;;;;;;;143738;586;46020;-60
2021/06/05 05:50:33;;;;;;;11.02;7.15;;;;;;;;;;143739;594;46018;-60
2021/06/05 05:53:00;;;;;;;11.85;7.95;;;;;;;;;;143738;695;46020;-60
2021/06/05 05:55:28;;;;;;;8.85;6.40;;;;;;;;;;143735;578;46012;-60
2021/06/05 05:57:55;;;;;;;10.18;5.53;;;;;;;;;;143739;645;45020;-61
2021/06/05 06:00:29;;;;;;;8.63;5.10;;;;;;;;;;143739;589;46010;-60
2021/06/05 06:02:57;;;;;;;9.20;5.18;;;;;;;;;;143735;656;46021;-60
2021/06/05 06:05:24;;;;;;;7.70;5.47;;;;;;;;;;143736;621;46012;-60
2021/06/05 06:07:50;;;;;;;10.73;6.47;;;;;;;;;;143735;624;45020;-60
2021/06/05 06:10:19;;;;;;;9.07;5.90;;;;;;;;;;143739;566;46010;-60
2021/06/05 06:12:46;;;;;;;9.30;5.45;;;;;;;;;;143734;580;46022;-59
2021/06/05 06:15:21;;;;;;;12.05;6.28;;;;;;;;;;143736;563;46012;-60
2021/06/05 06:17:49;;;;;;;10.45;6.03;;;;;;;;;;143738;577;45021;-60
2021/06/05 06:20:24;;;;;;;8.18;5.18;;;;;;;;;;143741;587;45020;-61
2021/06/05 06:22:51;;;;;;;8.07;4.32;;;;;;;;;;143734;585;46022;-60
2021/06/05 06:25:24;;;;;;;6.30;4.30;;;;;;;;;;143736;614;46012;-59
2021/06/05 06:27:52;;;;;;;9.57;6.27;;;;;;;;;;143737;585;45020;-59
2021/06/05 06:30:26;;;;;;;9.25;5.68;;;;;;;;;;143740;589;46020;-59
2021/06/05 06:32:53;;;;;;;9.18;6.10;;;;;;;;;;143734;591;46023;-60
2021/06/05 06:35:21;;;;;;;11.35;4.93;;;;;;;;;;143734;585;46012;-60
2021/06/05 06:37:49;;;;;;;9.38;5.93;;;;;;;;;;143737;582;45020;-60
2021/06/05 06:40:18;;;;;;;13.13;5.65;;;;;;;;;;143740;604;46021;-59
2021/06/05 06:42:45;;;;;;;11.65;5.00;;;;;;;;;;143734;574;46022;-59
2021/06/05 06:45:14;;;;;;;8.93;5.80;;;;;;;;;;143734;590;46916;-59
2021/06/05 06:47:41;;;;;;;8.68;5.82;;;;;;;;;;143739;581;45021;-59
2021/06/05 06:50:11;;;;;;;7.72;4.70;;;;;;;;;;143740;586;46020;-59
2021/06/05 06:52:38;;;;;;;5.87;4.47;;;;;;;;;;143734;563;46020;-58
2021/06/05 06:55:07;;;;;;;9.55;5.70;;;;;;;;;;143736;640;46012;-59
2021/06/05 06:57:34;;;;;;;10.32;5.70;;;;;;;;;;143737;574;45020;-60
2021/06/05 07:00:02;;;;;;;7.85;5.25;;;;;;;;;;143742;584;45020;-61
2021/06/05 07:02:29;;;;;;;11.70;5.20;;;;;;;;;;143733;608;46021;-62
2021/06/05 07:04:56;;;;;;;10.48;5.28;;;;;;;;;;143735;610;46012;-61
2021/06/05 07:07:23;;;;;;;13.02;5.22;;;;;;;;;;143737;701;45020;-59
2021/06/05 07:09:50;;;;;;;8.45;4.68;;;;;;;;;;143741;620;45021;-59
2021/06/05 07:12:17;;;;;;;6.40;4.45;;;;;;;;;;143736;591;46020;-59
2021/06/05 07:14:44;;;;;;;7.90;4.37;;;;;;;;;;143737;563;46012;-58
2021/06/05 07:17:11;;;;;;;7.57;4.40;;;;;;;;;;143737;600;45021;-58
2021/06/05 07:19:38;;;;;;;7.12;4.20;;;;;;;;;;143741;564;45020;-60
2021/06/05 07:22:05;;;;;;;7.97;4.60;;;;;;;;;;143737;702;46020;-61
2021/06/05 07:24:33;;;;;;;10.35;4.50;;;;;;;;;;143737;621;46012;-60
2021/06/05 07:27:00;;;;;;;6.68;4.55;;;;;;;;;;143736;643;45909;-61
2021/06/05 07:29:27;;;;;;;9.60;4.53;;;;;;;;;;143739;569;46020;-60
2021/06/05 07:31:54;;;;;;;8.82;4.62;;;;;;;;;;143735;572;46021;-59
2021/06/05 07:34:23;;;;;;;8.60;4.15;;;;;;;;;;143736;657;46012;-59
2021/06/05 07:36:56;;;;;;;7.53;4.37;;;;;;;;;;143737;677;45020;-60
2021/06/05 07:39:26;;;;;;;7.63;4.23;;;;;;;;;;143738;570;46021;-60
2021/06/05 07:41:54;;;;;;;11.02;4.60;;;;;;;;;;143736;569;46020;-61
2021/06/05 07:44:22;;;;;;;6.43;4.50;;;;;;;;;;143736;564;46012;-59
2021/06/05 07:46:56;;;;;;;8.07;4.25;;;;;;;;;;143738;659;45021;-61
2021/06/05 07:49:28;;;;;;;7.60;4.40;;;;;;;;;;143741;685;46010;-60
2021/06/05 07:51:57;;;;;;;11.00;4.60;;;;;;;;;;143733;569;47020;-59
2021/06/05 07:54:24;;;;;;;8.35;4.00;;;;;;;;;;143735;574;46013;-60
2021/06/05 07:56:51;;;;;;;5.37;3.95;;;;;;;;;;143734;628;46012;-61
2021/06/05 07:59:20;;;;;;;5.57;4.18;;;;;;;;;;143739;588;46020;-60
2021/06/05 08:01:47;;;;;;;9.50;4.37;;;;;;;;;;143734;578;46022;-60
2021/06/05 08:04:14;;;;;;;6.72;4.45;;;;;;;;;;143736;569;46030;-61
2021/06/05 08:06:41;;;;;;;5.50;3.78;;;;;;;;;;143739;565;45020;-60
2021/06/05 08:09:09;;;;;;;5.28;3.55;;;;;;;;;;143739;589;46020;-60
2021/06/05 08:11:37;;;;;;;6.70;4.40;;;;;;;;;;143736;586;46020;-61
2021/06/05 08:14:04;;;;;;;8.65;4.80;;;;;;;;;;143736;584;46012;-61
2021/06/05 08:16:37;;;;;;;8.88;4.80;;;;;;;;;;143737;661;45021;-61
2021/06/05 08:19:05;;;;;;;7.73;4.20;;;;;;;;;;143738;597;46020;-61
2021/06/05 08:21:32;;;;;;;6.07;3.90;;;;;;;;;;143736;592;46020;-59
2021/06/05 08:24:00;;;;;;;6.53;4.53;;;;;;;;;;143734;585;46013;-59
2021/06/05 08:26:27;;;;;;;4.82;3.87;;;;;;;;;;143737;569;45020;-58
2021/06/05 08:28:54;;;;;;;12.30;5.25;;;;;;;;;;143741;580;46010;-58
2021/06/05 08:31:22;;;;;;;4.57;3.53;;;;;;;;;;143735;583;46021;-60
2021/06/05 08:33:49;;;;;;;8.43;4.18;;;;;;;;;;143735;569;46012;-59
2021/06/05 08:36:20;;;;;;;4.82;3.70;;;;;;;;;;143737;600;45020;-59
2021/06/05 08:38:47;;;;;;;4.55;4.05;;;;;;;;;;143740;571;46011;-61
2021/06/05 08:41:30;;;;;;;6.93;3.40;;;;;;;;;;143735;600;46021;-59
2021/06/05 08:44:34;;;;;;;4.18;3.55;;;;;;;;;;143735;578;46012;-60
2021/06/05 08:47:17;;;;;;;7.25;4.10;;;;;;;;;;143735;588;45910;-59
2021/06/05 08:49:45;;;;;;;4.68;3.90;;;;;;;;;;143741;586;46010;-58
2021/06/05 08:52:32;;;;;;;6.47;4.50;;;;;;;;;;143736;617;46021;-58
2021/06/05 08:55:39;;;;;;;6.68;3.78;;;;;;;;;;143735;615;46012;-58
2021/06/05 08:58:31;;;;;;;7.07;4.12;;;;;;;;;;143738;650;45020;-59
2021/06/05 09:01:03;;;;;;;7.70;4.03;;;;;;;;;;143739;650;46020;-58
2021/06/05 09:03:32;;;;;;;5.68;3.90;;;;;;;;;;143735;601;46020;-58
2021/06/05 09:06:13;;;;;;;6.97;4.62;;;;;;;;;;143735;630;46012;-59
2021/06/05 09:08:40;;;;;;;6.85;5.05;;;;;;;;;;143736;590;45021;-59
2021/06/05 09:11:07;;;;;;;5.37;3.60;;;;;;;;;;143742;581;45020;-58
2021/06/05 09:13:34;;;;;;;8.80;4.37;;;;;;;;;;143736;601;46020;-59
2021/06/05 09:16:37;;;;;;;8.88;4.72;;;;;;;;;;143737;623;46012;-59
2021/06/05 09:19:27;;;;;;;10.27;5.15;;;;;;;;;;143736;589;45020;-59
2021/06/05 09:22:20;;;;;;;9.70;5.05;;;;;;;;;;143739;588;46010;-59
2021/06/05 09:24:50;;;;;;;6.62;3.80;;;;;;;;;;143735;603;46025;-59
2021/06/05 09:27:26;;;;;;;9.45;5.68;;;;;;;;;;143737;566;46010;-59
2021/06/05 09:30:04;;;;;;;7.00;4.10;;;;;;;;;;143737;594;45020;-59
2021/06/05 09:32:52;;;;;;;7.12;5.40;;;;;;;;;;143738;581;46021;-59
2021/06/05 09:35:24;;;;;;;12.27;5.43;;;;;;;;;;143736;659;46020;-59
2021/06/05 09:38:11;;;;;;;11.68;6.95;;;;;;;;;;143734;613;46012;-59
2021/06/05 09:40:38;;;;;;;11.48;7.72;;;;;;;;;;143737;603;46012;-59
2021/06/05 09:43:21;;;;;;;12.90;6.30;;;;;;;;;;143739;595;46020;-59
2021/06/05 09:46:07;;;;;;;10.98;5.90;;;;;;;;;;143734;589;46022;-59
2021/06/05 09:48:41;;;;;;;8.98;6.20;;;;;;;;;;143734;619;46012;-59
2021/06/05 09:51:35;;;;;;;8.80;5.97;;;;;;;;;;143736;602;45020;-59
2021/06/05 09:54:22;;;;;;;10.75;5.95;;;;;;;;;;143740;616;46010;-59
2021/06/05 09:56:50;;;;;;;7.45;4.72;;;;;;;;;;143734;614;46024;-59
2021/06/05 09:59:33;;;;;;;8.48;4.90;;;;;;;;;;143735;589;46012;-59
2021/06/05 10:02:15;;;;;;;8.95;4.07;;;;;;;;;;143737;582;45021;-59
2021/06/05 10:04:42;;;;;;;7.75;4.47;;;;;;;;;;143741;577;45020;-60
2021/06/05 10:07:27;;;;;;;7.07;4.65;;;;;;;;;;143734;606;46022;-60
2021/06/05 10:10:14;;;;;;;10.43;6.75;;;;;;;;;;143735;584;46012;-59
2021/06/05 10:12:43;;;;;;;8.07;5.10;;;;;;;;;;143737;621;45021;-58
2021/06/05 10:15:20;;;;;;;7.75;4.57;;;;;;;;;;143739;602;46020;-59
2021/06/05 10:18:14;;;;;;;8.50;4.95;;;;;;;;;;143735;604;46020;-58
2021/06/05 10:20:58;;;;;;;6.57;4.30;;;;;;;;;;143734;582;46012;-58
2021/06/05 10:23:40;;;;;;;6.35;4.20;;;;;;;;;;143737;578;45021;-59
2021/06/05 10:26:22;;;;;;;9.00;5.10;;;;;;;;;;143737;592;46010;-58
2021/06/05 10:29:03;;;;;;;11.55;5.70;;;;;;;;;;143732;569;46052;-58
2021/06/05 10:31:33;;;;;;;7.05;4.68;;;;;;;;;;143731;569;46911;-58
2021/06/05 10:34:14;;;;;;;6.57;4.20;;;;;;;;;;143731;655;45020;-58
2021/06/05 10:36:46;;;;;;;10.18;4.72;;;;;;;;;;143737;577;46020;-58
2021/06/05 10:39:21;;;;;;;8.77;4.53;;;;;;;;;;143733;629;46023;-58
2021/06/05 10:42:01;;;;;;;6.25;4.00;;;;;;;;;;143732;610;46012;-59
2021/06/05 10:44:28;;;;;;;6.53;4.05;;;;;;;;;;143733;594;45020;-58
2021/06/05 10:47:10;;;;;;;7.07;4.30;;;;;;;;;;143738;592;46010;-58
2021/06/05 10:50:17;;;;;;;8.35;4.40;;;;;;;;;;143733;569;46022;-58
2021/06/05 10:53:16;;;;;;;9.05;4.20;;;;;;;;;;143732;593;46013;-58
2021/06/05 10:55:49;;;;;;;6.75;4.03;;;;;;;;;;143735;605;45021;-58
2021/06/05 10:58:49;;;;;;;6.57;4.47;;;;;;;;;;143738;569;46010;-58
2021/06/05 11:01:45;;;;;;;9.93;4.47;;;;;;;;;;143735;595;46021;-58
2021/06/05 11:04:47;;;;;;;7.00;4.50;;;;;;;;;;143731;581;46010;-60
2021/06/05 11:07:27;;;;;;;8.25;4.00;;;;;;;;;;143735;593;45021;-59
2021/06/05 11:09:57;;;;;;;9.88;4.78;;;;;;;;;;143738;624;46020;-59
2021/06/05 11:12:44;;;;;;;12.43;5.12;;;;;;;;;;143732;571;46022;-60
2021/06/05 11:15:33;;;;;;;6.03;4.20;;;;;;;;;;143734;576;46011;-60
2021/06/05 11:18:35;;;;;;;7.10;4.35;;;;;;;;;;143731;587;46018;-59
2021/06/05 11:21:39;;;;;;;7.32;5.07;;;;;;;;;;143736;606;46012;-59
2021/06/05 11:24:21;;;;;;;8.52;4.65;;;;;;;;;;143732;575;46025;-59
2021/06/05 11:26:52;;;;;;;12.23;5.00;;;;;;;;;;143733;572;46010;-60
2021/06/05 11:29:48;;;;;;;11.90;5.85;;;;;;;;;;143735;581;45021;-59
2021/06/05 11:32:48;;;;;;;6.60;4.37;;;;;;;;;;143738;572;46021;-60
2021/06/05 11:36:00;;;;;;;7.47;4.93;;;;;;;;;;143733;564;46020;-59
2021/06/05 11:38:47;;;;;;;7.68;4.40;;;;;;;;;;143733;593;46010;-60
2021/06/05 11:41:48;;;;;;;8.10;4.43;;;;;;;;;;143735;576;45020;-61
2021/06/05 11:44:41;;;;;;;6.20;4.40;;;;;;;;;;143738;604;46010;-60
2021/06/05 11:47:40;;;;;;;9.27;4.40;;;;;;;;;;143733;614;46021;-61
2021/06/05 11:50:31;;;;;;;6.18;4.45;;;;;;;;;;143731;628;46010;-60
2021/06/05 11:53:28;;;;;;;6.37;4.20;;;;;;;;;;143735;570;45021;-61
2021/06/05 11:55:57;;;;;;;10.10;4.40;;;;;;;;;;143738;587;46020;-61
2021/06/05 11:58:31;;;;;;;7.65;4.20;;;;;;;;;;143733;658;46022;-60
2021/06/05 12:01:09;;;;;;;7.12;4.28;;;;;;;;;;143734;565;46010;-60
2021/06/05 12:04:01;;;;;;;5.32;4.00;;;;;;;;;;143735;613;45020;-62
2021/06/05 12:06:41;;;;;;;6.37;4.00;;;;;;;;;;143736;588;46038;-60
2021/06/05 12:09:15;;;;;;;7.15;4.32;;;;;;;;;;143734;618;46012;-61
2021/06/05 12:11:49;;;;;;;8.82;4.12;;;;;;;;;;143734;604;46010;-60
2021/06/05 12:17:44;;;;;;;5.70;4.15;;;;;;;;;;143738;580;46010;-61
2021/06/05 12:20:39;;;;;;;5.03;3.97;;;;;;;;;;143732;638;46022;-60
2021/06/05 12:23:38;;;;;;;9.75;4.70;;;;;;;;;;143733;577;46010;-61
2021/06/05 12:26:22;;;;;;;7.68;4.40;;;;;;;;;;143733;585;45018;-61
2021/06/05 12:28:51;;;;;;;;;;;;;;;;;;143740;978;47010;-60
2021/06/05 12:31:30;;;;;;;7.07;4.30;;;;;;;;;;143737;585;47018;-61
2021/06/05 12:34:05;;;;;;;6.72;4.25;;;;;;;;;;143732;661;46010;-61
2021/06/05 12:36:39;;;;;;;6.50;4.20;;;;;;;;;;143734;611;45019;-60
2021/06/05 12:39:34;;;;;;;;;;;;;;;;;;143742;975;46012;-60
2021/06/05 12:42:02;;;;;;;8.30;4.45;;;;;;;;;;143739;594;46018;-62
2021/06/05 12:44:32;;;;;;;12.48;4.70;;;;;;;;;;143731;592;46010;-62
2021/06/05 12:47:03;;;;;;;7.15;4.40;;;;;;;;;;143735;588;45019;-62
2021/06/05 12:49:31;;;;;;;5.37;4.32;;;;;;;;;;143739;619;45022;-60
2021/06/05 12:52:01;;;;;;;6.43;4.45;;;;;;;;;;143732;587;46019;-60
2021/06/05 12:54:44;;;;;;;5.15;4.07;;;;;;;;;;143736;587;45920;-61
2021/06/05 12:57:37;;;;;;;5.70;4.40;;;;;;;;;;143735;645;46010;-60
2021/06/05 13:00:33;;;;;;;5.07;3.85;;;;;;;;;;143739;606;45027;-61
2021/06/05 13:03:48;;;;;;;6.62;4.25;;;;;;;;;;143733;585;46018;-61
2021/06/05 13:06:19;;;;;;;;;;;;;;;;;;143738;979;46011;-61
2021/06/05 13:08:49;;;;;;;5.85;4.03;;;;;;;;;;143741;566;45019;-60
2021/06/05 13:11:45;;;;;;;5.75;4.07;;;;;;;;;;143739;575;45022;-62
2021/06/05 13:14:24;;;;;;;7.70;4.35;;;;;;;;;;143734;588;46019;-60
2021/06/05 13:17:11;;;;;;;7.28;4.20;;;;;;;;;;143733;639;46010;-61
2021/06/05 13:19:38;;;;;;;9.57;4.37;;;;;;;;;;143736;623;45023;-60
2021/06/05 13:22:36;;;;;;;5.15;4.20;;;;;;;;;;143737;733;46022;-60
2021/06/05 13:25:26;;;;;;;6.05;3.85;;;;;;;;;;143732;604;46022;-60
2021/06/05 13:28:39;;;;;;;7.82;4.30;;;;;;;;;;143733;608;46010;-60
2021/06/05 13:31:06;;;;;;;12.45;4.40;;;;;;;;;;143733;597;46021;-61
2021/06/05 13:33:50;;;;;;;5.70;4.10;;;;;;;;;;143738;593;46012;-60
2021/06/05 13:36:26;;;;;;;;;;;;;;;;;;143740;964;46019;-60
2021/06/05 13:39:08;;;;;;;7.35;4.28;;;;;;;;;;143739;686;46010;-60
2021/06/05 13:41:35;;;;;;;7.68;3.90;;;;;;;;;;143733;565;45018;-61
2021/06/05 13:44:02;;;;;;;5.07;4.10;;;;;;;;;;143730;650;48011;-61
2021/06/05 13:46:30;;;;;;;7.80;4.57;;;;;;;;;;143733;587;46018;-60
2021/06/05 13:48:57;;;;;;;6.18;3.95;;;;;;;;;;143733;569;46010;-61
2021/06/05 13:51:28;;;;;;;8.50;4.12;;;;;;;;;;143733;588;45019;-61
2021/06/05 13:53:56;;;;;;;11.32;4.07;;;;;;;;;;143738;576;46010;-62
2021/06/05 13:56:24;;;;;;;8.32;4.20;;;;;;;;;;143734;588;46018;-62
2021/06/05 13:58:52;;;;;;;9.98;4.60;;;;;;;;;;143733;577;46011;-62
2021/06/05 14:01:26;;;;;;;4.70;3.83;;;;;;;;;;143735;647;45019;-61
2021/06/05 14:03:52;;;;;;;;;;;;;;;;;;143743;980;46022;-60
2021/06/05 14:06:20;;;;;;;7.12;4.20;;;;;;;;;;143739;566;46020;-62
2021/06/05 14:08:47;;;;;;;6.53;4.03;;;;;;;;;;143733;592;46010;-61
2021/06/05 14:11:17;;;;;;;7.15;4.10;;;;;;;;;;143734;701;45019;-60
2021/06/05 14:13:52;;;;;;;4.55;3.75;;;;;;;;;;143737;570;46020;-60
2021/06/05 14:16:21;;;;;;;7.55;3.97;;;;;;;;;;143734;632;46022;-60
2021/06/05 14:18:49;;;;;;;5.90;4.00;;;;;;;;;;143735;583;46020;-61
2021/06/05 14:21:17;;;;;;;10.65;4.10;;;;;;;;;;143733;572;46910;-60
2021/06/05 14:23:44;;;;;;;8.10;3.80;;;;;;;;;;143737;670;46012;-62
2021/06/05 14:26:12;;;;;;;9.07;4.60;;;;;;;;;;143733;647;46020;-60
2021/06/05 14:28:40;;;;;;;7.95;4.32;;;;;;;;;;143733;638;46013;-61
2021/06/05 14:31:08;;;;;;;6.30;3.83;;;;;;;;;;143736;619;45021;-61
2021/06/05 14:33:36;;;;;;;4.05;3.67;;;;;;;;;;143736;693;46020;-61
2021/06/05 14:36:05;;;;;;;7.62;4.03;;;;;;;;;;143734;609;46021;-60
2021/06/05 14:38:34;;;;;;;7.47;4.20;;;;;;;;;;143733;729;46020;-61
2021/06/05 14:41:01;;;;;;;8.38;4.18;;;;;;;;;;143736;566;45909;-61
2021/06/05 14:43:29;;;;;;;5.60;4.37;;;;;;;;;;143738;617;46020;-60
2021/06/05 14:45:58;;;;;;;7.72;4.12;;;;;;;;;;143733;593;47020;-63
2021/06/05 14:48:27;;;;;;;5.15;4.18;;;;;;;;;;143733;582;46012;-61
2021/06/05 14:50:54;;;;;;;5.78;4.32;;;;;;;;;;143732;633;45021;-60
2021/06/05 14:53:25;;;;;;;6.30;4.00;;;;;;;;;;143740;585;45030;-62
2021/06/05 14:55:52;;;;;;;6.30;4.40;;;;;;;;;;143729;580;47020;-60
2021/06/05 14:58:21;;;;;;;6.50;4.00;;;;;;;;;;143734;608;46012;-61
2021/06/05 15:00:48;;;;;;;5.95;4.65;;;;;;;;;;143735;691;46015;-61
2021/06/05 15:03:15;;;;;;;10.63;4.37;;;;;;;;;;143739;634;45020;-61
2021/06/05 15:05:43;;;;;;;4.65;3.90;;;;;;;;;;143732;581;46022;-61
2021/06/05 15:08:10;;;;;;;4.82;3.75;;;;;;;;;;143734;564;46012;-61
2021/06/05 15:10:37;;;;;;;6.90;3.90;;;;;;;;;;143737;591;45021;-61
2021/06/05 15:13:05;;;;;;;7.60;4.20;;;;;;;;;;143737;585;46020;-61
2021/06/05 15:15:36;;;;;;;7.40;4.85;;;;;;;;;;143732;594;46023;-61
2021/06/05 15:18:05;;;;;;;8.75;4.30;;;;;;;;;;143734;717;46012;-60
2021/06/05 15:20:32;;;;;;;7.22;4.43;;;;;;;;;;143737;612;45021;-62
2021/06/05 15:22:59;;;;;;;8.77;4.53;;;;;;;;;;143739;564;46021;-61